sensor_id;sensor_type;location;lat;lon;timestamp;P1;durP1;ratioP1;P2;durP2;ratioP2
17151;SDS011;8691;50.828;4.700;2023-03-04T00:01:51;13.57;;;11.40;;
17151;SDS011;8691;50.828;4.700;2023-03-04T00:04:17;17.57;;;12.70;;
17151;SDS011;8691;50.828;4.700;2023-03-04T00:06:44;19.98;;;16.20;;
17151;SDS011;8691;50.828;4.700;2023-03-04T00:09:11;13.90;;;12.50;;
17151;SDS011;8691;50.828;4.700;2023-03-04T00:11:37;17.53;;;12.53;;
17151;SDS011;8691;50.828;4.700;2023-03-04T00:14:04;17.57;;;15.10;;
17151;SDS011;8691;50.828;4.700;2023-03-04T00:16:31;16.83;;;15.00;;
17151;SDS011;8691;50.828;4.700;2023-03-04T00:18:58;18.80;;;14.37;;
17151;SDS011;8691;50.828;4.700;2023-03-04T00:21:25;13.93;;;11.73;;
17151;SDS011;8691;50.828;4.700;2023-03-04T00:23:51;15.83;;;11.17;;
17151;SDS011;8691;50.828;4.700;2023-03-04T00:26:18;12.47;;;10.67;;
17151;SDS011;8691;50.828;4.700;2023-03-04T00:28:45;13.67;;;11.30;;
17151;SDS011;8691;50.828;4.700;2023-03-04T00:31:12;14.47;;;10.70;;
17151;SDS011;8691;50.828;4.700;2023-03-04T00:33:39;16.03;;;9.80;;
17151;SDS011;8691;50.828;4.700;2023-03-04T00:36:06;12.50;;;9.23;;
17151;SDS011;8691;50.828;4.700;2023-03-04T00:38:33;18.77;;;13.10;;
17151;SDS011;8691;50.828;4.700;2023-03-04T00:41:00;16.70;;;13.05;;
17151;SDS011;8691;50.828;4.700;2023-03-04T00:43:27;11.27;;;9.63;;
17151;SDS011;8691;50.828;4.700;2023-03-04T00:45:53;15.20;;;9.20;;
17151;SDS011;8691;50.828;4.700;2023-03-04T00:48:21;12.83;;;9.00;;
17151;SDS011;8691;50.828;4.700;2023-03-04T00:50:47;13.37;;;8.60;;
17151;SDS011;8691;50.828;4.700;2023-03-04T00:53:15;14.23;;;8.47;;
17151;SDS011;8691;50.828;4.700;2023-03-04T00:55:41;14.90;;;8.23;;
17151;SDS011;8691;50.828;4.700;2023-03-04T00:58:09;9.27;;;7.60;;
17151;SDS011;8691;50.828;4.700;2023-03-04T01:00:35;16.40;;;8.30;;
17151;SDS011;8691;50.828;4.700;2023-03-04T01:03:03;11.70;;;7.73;;
17151;SDS011;8691;50.828;4.700;2023-03-04T01:05:29;16.27;;;7.83;;
17151;SDS011;8691;50.828;4.700;2023-03-04T01:07:57;16.17;;;7.80;;
17151;SDS011;8691;50.828;4.700;2023-03-04T01:10:23;10.47;;;7.73;;
17151;SDS011;8691;50.828;4.700;2023-03-04T01:12:51;15.10;;;8.47;;
17151;SDS011;8691;50.828;4.700;2023-03-04T01:15:17;15.23;;;8.00;;
17151;SDS011;8691;50.828;4.700;2023-03-04T01:17:44;13.57;;;7.80;;
17151;SDS011;8691;50.828;4.700;2023-03-04T01:20:11;20.67;;;8.20;;
17151;SDS011;8691;50.828;4.700;2023-03-04T01:22:37;16.37;;;7.73;;
17151;SDS011;8691;50.828;4.700;2023-03-04T01:25:04;18.97;;;9.13;;
17151;SDS011;8691;50.828;4.700;2023-03-04T01:27:30;17.57;;;8.60;;
17151;SDS011;8691;50.828;4.700;2023-03-04T01:29:57;14.30;;;7.70;;
17151;SDS011;8691;50.828;4.700;2023-03-04T01:32:24;15.97;;;7.73;;
17151;SDS011;8691;50.828;4.700;2023-03-04T01:34:51;15.60;;;8.53;;
17151;SDS011;8691;50.828;4.700;2023-03-04T01:37:18;12.83;;;7.03;;
17151;SDS011;8691;50.828;4.700;2023-03-04T01:39:45;16.80;;;7.67;;
17151;SDS011;8691;50.828;4.700;2023-03-04T01:42:16;16.07;;;7.60;;
17151;SDS011;8691;50.828;4.700;2023-03-04T01:44:45;12.43;;;7.10;;
17151;SDS011;8691;50.828;4.700;2023-03-04T01:47:11;14.53;;;8.13;;
17151;SDS011;8691;50.828;4.700;2023-03-04T01:49:39;14.77;;;7.80;;
17151;SDS011;8691;50.828;4.700;2023-03-04T01:52:09;19.13;;;7.77;;
17151;SDS011;8691;50.828;4.700;2023-03-04T01:54:32;13.03;;;7.67;;
17151;SDS011;8691;50.828;4.700;2023-03-04T01:57:00;14.60;;;7.30;;
17151;SDS011;8691;50.828;4.700;2023-03-04T01:59:29;13.60;;;7.40;;
17151;SDS011;8691;50.828;4.700;2023-03-04T02:01:55;13.53;;;7.10;;
17151;SDS011;8691;50.828;4.700;2023-03-04T02:04:21;13.97;;;7.67;;
17151;SDS011;8691;50.828;4.700;2023-03-04T02:06:47;15.47;;;7.73;;
17151;SDS011;8691;50.828;4.700;2023-03-04T02:09:14;12.87;;;7.47;;
17151;SDS011;8691;50.828;4.700;2023-03-04T02:11:40;12.80;;;7.30;;
17151;SDS011;8691;50.828;4.700;2023-03-04T02:14:07;13.30;;;7.30;;
17151;SDS011;8691;50.828;4.700;2023-03-04T02:16:34;10.03;;;7.03;;
17151;SDS011;8691;50.828;4.700;2023-03-04T02:19:00;14.80;;;8.00;;
17151;SDS011;8691;50.828;4.700;2023-03-04T02:24:03;12.93;;;6.80;;
17151;SDS011;8691;50.828;4.700;2023-03-04T02:26:38;12.33;;;7.10;;
17151;SDS011;8691;50.828;4.700;2023-03-04T02:29:04;16.20;;;7.30;;
17151;SDS011;8691;50.828;4.700;2023-03-04T02:31:35;8.97;;;6.77;;
17151;SDS011;8691;50.828;4.700;2023-03-04T02:34:05;16.67;;;7.10;;
17151;SDS011;8691;50.828;4.700;2023-03-04T02:36:30;17.67;;;9.93;;
17151;SDS011;8691;50.828;4.700;2023-03-04T02:39:01;13.43;;;7.77;;
17151;SDS011;8691;50.828;4.700;2023-03-04T02:41:32;11.87;;;7.17;;
17151;SDS011;8691;50.828;4.700;2023-03-04T02:43:59;10.80;;;7.33;;
17151;SDS011;8691;50.828;4.700;2023-03-04T02:46:26;13.33;;;6.83;;
17151;SDS011;8691;50.828;4.700;2023-03-04T02:48:53;12.47;;;6.80;;
17151;SDS011;8691;50.828;4.700;2023-03-04T02:51:19;15.93;;;7.30;;
17151;SDS011;8691;50.828;4.700;2023-03-04T02:53:46;11.77;;;6.80;;
17151;SDS011;8691;50.828;4.700;2023-03-04T02:56:13;13.77;;;6.23;;
17151;SDS011;8691;50.828;4.700;2023-03-04T02:58:39;15.67;;;6.80;;
17151;SDS011;8691;50.828;4.700;2023-03-04T03:01:06;12.30;;;6.00;;
17151;SDS011;8691;50.828;4.700;2023-03-04T03:03:32;14.57;;;6.17;;
17151;SDS011;8691;50.828;4.700;2023-03-04T03:05:59;15.33;;;6.23;;
17151;SDS011;8691;50.828;4.700;2023-03-04T03:08:26;15.67;;;6.60;;
17151;SDS011;8691;50.828;4.700;2023-03-04T03:10:53;11.97;;;4.87;;
17151;SDS011;8691;50.828;4.700;2023-03-04T03:13:20;10.00;;;4.90;;
17151;SDS011;8691;50.828;4.700;2023-03-04T03:15:46;7.67;;;5.03;;
17151;SDS011;8691;50.828;4.700;2023-03-04T03:18:15;16.80;;;6.60;;
17151;SDS011;8691;50.828;4.700;2023-03-04T03:20:42;14.38;;;6.12;;
17151;SDS011;8691;50.828;4.700;2023-03-04T03:23:09;15.73;;;5.50;;
17151;SDS011;8691;50.828;4.700;2023-03-04T03:25:35;12.30;;;5.10;;
17151;SDS011;8691;50.828;4.700;2023-03-04T03:28:02;14.60;;;5.70;;
17151;SDS011;8691;50.828;4.700;2023-03-04T03:30:29;8.97;;;4.77;;
17151;SDS011;8691;50.828;4.700;2023-03-04T03:32:55;11.17;;;5.13;;
17151;SDS011;8691;50.828;4.700;2023-03-04T03:35:22;14.27;;;4.93;;
17151;SDS011;8691;50.828;4.700;2023-03-04T03:37:49;12.13;;;4.83;;
17151;SDS011;8691;50.828;4.700;2023-03-04T03:40:15;16.33;;;5.27;;
17151;SDS011;8691;50.828;4.700;2023-03-04T03:42:42;16.83;;;5.37;;
17151;SDS011;8691;50.828;4.700;2023-03-04T03:45:09;12.37;;;5.37;;
17151;SDS011;8691;50.828;4.700;2023-03-04T03:47:36;14.27;;;5.13;;
17151;SDS011;8691;50.828;4.700;2023-03-04T03:50:03;15.83;;;6.43;;
17151;SDS011;8691;50.828;4.700;2023-03-04T03:52:29;11.70;;;4.87;;
17151;SDS011;8691;50.828;4.700;2023-03-04T03:54:56;11.93;;;5.70;;
17151;SDS011;8691;50.828;4.700;2023-03-04T03:57:23;11.53;;;6.20;;
17151;SDS011;8691;50.828;4.700;2023-03-04T03:59:50;15.07;;;5.73;;
17151;SDS011;8691;50.828;4.700;2023-03-04T04:02:17;9.40;;;5.60;;
17151;SDS011;8691;50.828;4.700;2023-03-04T04:04:44;11.00;;;5.20;;
17151;SDS011;8691;50.828;4.700;2023-03-04T04:07:10;12.80;;;5.63;;
17151;SDS011;8691;50.828;4.700;2023-03-04T04:09:37;11.67;;;5.50;;
17151;SDS011;8691;50.828;4.700;2023-03-04T04:12:04;13.10;;;5.40;;
17151;SDS011;8691;50.828;4.700;2023-03-04T04:14:30;15.10;;;5.70;;
17151;SDS011;8691;50.828;4.700;2023-03-04T04:16:57;9.90;;;4.80;;
17151;SDS011;8691;50.828;4.700;2023-03-04T04:19:24;9.37;;;5.50;;
17151;SDS011;8691;50.828;4.700;2023-03-04T04:21:51;13.13;;;6.10;;
17151;SDS011;8691;50.828;4.700;2023-03-04T04:24:17;10.10;;;5.87;;
17151;SDS011;8691;50.828;4.700;2023-03-04T04:26:44;10.10;;;5.50;;
17151;SDS011;8691;50.828;4.700;2023-03-04T04:29:12;14.27;;;6.50;;
17151;SDS011;8691;50.828;4.700;2023-03-04T04:31:37;17.73;;;6.27;;
17151;SDS011;8691;50.828;4.700;2023-03-04T04:34:04;10.47;;;6.03;;
17151;SDS011;8691;50.828;4.700;2023-03-04T04:36:30;12.53;;;5.33;;
17151;SDS011;8691;50.828;4.700;2023-03-04T04:38:57;14.80;;;7.43;;
17151;SDS011;8691;50.828;4.700;2023-03-04T04:41:26;15.33;;;7.70;;
17151;SDS011;8691;50.828;4.700;2023-03-04T04:43:51;18.43;;;7.93;;
17151;SDS011;8691;50.828;4.700;2023-03-04T04:46:18;16.57;;;7.83;;
17151;SDS011;8691;50.828;4.700;2023-03-04T04:48:45;19.17;;;7.73;;
17151;SDS011;8691;50.828;4.700;2023-03-04T04:51:12;14.97;;;6.50;;
17151;SDS011;8691;50.828;4.700;2023-03-04T04:53:39;16.50;;;6.37;;
17151;SDS011;8691;50.828;4.700;2023-03-04T04:56:14;11.07;;;5.00;;
17151;SDS011;8691;50.828;4.700;2023-03-04T04:58:39;12.40;;;5.33;;
17151;SDS011;8691;50.828;4.700;2023-03-04T05:01:05;13.10;;;5.20;;
17151;SDS011;8691;50.828;4.700;2023-03-04T05:03:33;11.73;;;4.80;;
17151;SDS011;8691;50.828;4.700;2023-03-04T05:05:59;10.03;;;4.93;;
17151;SDS011;8691;50.828;4.700;2023-03-04T05:08:27;10.13;;;4.30;;
17151;SDS011;8691;50.828;4.700;2023-03-04T05:10:53;15.57;;;5.23;;
17151;SDS011;8691;50.828;4.700;2023-03-04T05:13:21;11.27;;;4.23;;
17151;SDS011;8691;50.828;4.700;2023-03-04T05:15:49;8.40;;;5.37;;
17151;SDS011;8691;50.828;4.700;2023-03-04T05:18:15;9.87;;;5.00;;
17151;SDS011;8691;50.828;4.700;2023-03-04T05:20:41;9.80;;;5.23;;
17151;SDS011;8691;50.828;4.700;2023-03-04T05:23:08;12.07;;;5.27;;
17151;SDS011;8691;50.828;4.700;2023-03-04T05:25:36;15.77;;;6.07;;
17151;SDS011;8691;50.828;4.700;2023-03-04T05:28:02;10.67;;;5.10;;
17151;SDS011;8691;50.828;4.700;2023-03-04T05:30:30;14.33;;;5.40;;
17151;SDS011;8691;50.828;4.700;2023-03-04T05:32:56;14.93;;;5.43;;
17151;SDS011;8691;50.828;4.700;2023-03-04T05:35:24;14.30;;;5.10;;
17151;SDS011;8691;50.828;4.700;2023-03-04T05:37:50;10.47;;;5.10;;
17151;SDS011;8691;50.828;4.700;2023-03-04T05:40:18;8.97;;;4.50;;
17151;SDS011;8691;50.828;4.700;2023-03-04T05:42:44;7.33;;;4.23;;
17151;SDS011;8691;50.828;4.700;2023-03-04T05:45:11;9.97;;;4.47;;
17151;SDS011;8691;50.828;4.700;2023-03-04T05:47:37;14.33;;;4.53;;
17151;SDS011;8691;50.828;4.700;2023-03-04T05:50:04;12.53;;;4.80;;
17151;SDS011;8691;50.828;4.700;2023-03-04T05:52:31;7.37;;;5.10;;
17151;SDS011;8691;50.828;4.700;2023-03-04T05:54:59;13.70;;;4.90;;
17151;SDS011;8691;50.828;4.700;2023-03-04T05:57:25;16.60;;;5.40;;
17151;SDS011;8691;50.828;4.700;2023-03-04T05:59:52;9.97;;;5.03;;
17151;SDS011;8691;50.828;4.700;2023-03-04T06:02:19;10.80;;;5.13;;
17151;SDS011;8691;50.828;4.700;2023-03-04T06:04:45;12.97;;;6.40;;
17151;SDS011;8691;50.828;4.700;2023-03-04T06:07:12;15.70;;;7.23;;
17151;SDS011;8691;50.828;4.700;2023-03-04T06:09:39;14.50;;;7.13;;
17151;SDS011;8691;50.828;4.700;2023-03-04T06:12:06;9.90;;;5.40;;
17151;SDS011;8691;50.828;4.700;2023-03-04T06:14:34;15.30;;;6.97;;
17151;SDS011;8691;50.828;4.700;2023-03-04T06:17:00;15.80;;;7.13;;
17151;SDS011;8691;50.828;4.700;2023-03-04T06:19:27;15.38;;;7.32;;
17151;SDS011;8691;50.828;4.700;2023-03-04T06:21:54;15.33;;;7.33;;
17151;SDS011;8691;50.828;4.700;2023-03-04T06:24:21;14.80;;;7.72;;
17151;SDS011;8691;50.828;4.700;2023-03-04T06:26:48;14.37;;;6.53;;
17151;SDS011;8691;50.828;4.700;2023-03-04T06:29:14;11.90;;;6.43;;
17151;SDS011;8691;50.828;4.700;2023-03-04T06:31:41;14.33;;;6.67;;
17151;SDS011;8691;50.828;4.700;2023-03-04T06:34:08;9.97;;;6.40;;
17151;SDS011;8691;50.828;4.700;2023-03-04T06:36:34;14.23;;;6.87;;
17151;SDS011;8691;50.828;4.700;2023-03-04T06:39:04;13.37;;;6.87;;
17151;SDS011;8691;50.828;4.700;2023-03-04T06:41:31;11.50;;;6.47;;
17151;SDS011;8691;50.828;4.700;2023-03-04T06:43:57;13.60;;;6.83;;
17151;SDS011;8691;50.828;4.700;2023-03-04T06:46:24;16.87;;;6.93;;
17151;SDS011;8691;50.828;4.700;2023-03-04T06:48:51;12.67;;;7.07;;
17151;SDS011;8691;50.828;4.700;2023-03-04T06:51:18;13.17;;;7.30;;
17151;SDS011;8691;50.828;4.700;2023-03-04T06:53:45;14.83;;;7.63;;
17151;SDS011;8691;50.828;4.700;2023-03-04T06:56:12;15.60;;;7.13;;
17151;SDS011;8691;50.828;4.700;2023-03-04T06:58:39;13.53;;;6.57;;
17151;SDS011;8691;50.828;4.700;2023-03-04T07:03:38;13.70;;;7.07;;
17151;SDS011;8691;50.828;4.700;2023-03-04T07:06:05;14.97;;;6.83;;
17151;SDS011;8691;50.828;4.700;2023-03-04T07:08:32;13.10;;;6.20;;
17151;SDS011;8691;50.828;4.700;2023-03-04T07:10:58;14.77;;;6.83;;
17151;SDS011;8691;50.828;4.700;2023-03-04T07:13:25;15.27;;;6.00;;
17151;SDS011;8691;50.828;4.700;2023-03-04T07:15:51;13.30;;;6.47;;
17151;SDS011;8691;50.828;4.700;2023-03-04T07:18:18;12.07;;;5.90;;
17151;SDS011;8691;50.828;4.700;2023-03-04T07:20:45;11.00;;;6.07;;
17151;SDS011;8691;50.828;4.700;2023-03-04T07:23:11;11.83;;;6.23;;
17151;SDS011;8691;50.828;4.700;2023-03-04T07:25:38;11.60;;;6.03;;
17151;SDS011;8691;50.828;4.700;2023-03-04T07:28:04;12.87;;;6.20;;
17151;SDS011;8691;50.828;4.700;2023-03-04T07:30:32;12.60;;;6.17;;
17151;SDS011;8691;50.828;4.700;2023-03-04T07:32:58;10.87;;;5.40;;
17151;SDS011;8691;50.828;4.700;2023-03-04T07:35:26;12.37;;;5.73;;
17151;SDS011;8691;50.828;4.700;2023-03-04T07:37:52;16.27;;;6.17;;
17151;SDS011;8691;50.828;4.700;2023-03-04T07:40:20;12.47;;;5.50;;
17151;SDS011;8691;50.828;4.700;2023-03-04T07:42:49;11.07;;;6.17;;
17151;SDS011;8691;50.828;4.700;2023-03-04T07:45:16;8.87;;;4.90;;
17151;SDS011;8691;50.828;4.700;2023-03-04T07:47:42;9.70;;;5.47;;
17151;SDS011;8691;50.828;4.700;2023-03-04T07:50:09;10.93;;;5.23;;
17151;SDS011;8691;50.828;4.700;2023-03-04T07:52:37;8.57;;;5.13;;
17151;SDS011;8691;50.828;4.700;2023-03-04T07:55:03;10.13;;;4.17;;
17151;SDS011;8691;50.828;4.700;2023-03-04T07:57:30;11.63;;;4.97;;
17151;SDS011;8691;50.828;4.700;2023-03-04T07:59:56;8.57;;;4.17;;
17151;SDS011;8691;50.828;4.700;2023-03-04T08:02:23;12.23;;;5.10;;
17151;SDS011;8691;50.828;4.700;2023-03-04T08:04:50;8.52;;;4.72;;
17151;SDS011;8691;50.828;4.700;2023-03-04T08:07:17;8.57;;;4.10;;
17151;SDS011;8691;50.828;4.700;2023-03-04T08:09:44;11.20;;;4.87;;
17151;SDS011;8691;50.828;4.700;2023-03-04T08:12:11;11.30;;;5.07;;
17151;SDS011;8691;50.828;4.700;2023-03-04T08:14:38;11.53;;;4.30;;
17151;SDS011;8691;50.828;4.700;2023-03-04T08:17:04;10.43;;;4.30;;
17151;SDS011;8691;50.828;4.700;2023-03-04T08:19:31;13.37;;;4.67;;
17151;SDS011;8691;50.828;4.700;2023-03-04T08:21:58;13.70;;;4.53;;
17151;SDS011;8691;50.828;4.700;2023-03-04T08:24:25;10.13;;;4.13;;
17151;SDS011;8691;50.828;4.700;2023-03-04T08:26:52;11.73;;;4.67;;
17151;SDS011;8691;50.828;4.700;2023-03-04T08:29:20;8.13;;;4.37;;
17151;SDS011;8691;50.828;4.700;2023-03-04T08:31:46;13.13;;;4.37;;
17151;SDS011;8691;50.828;4.700;2023-03-04T08:34:13;9.37;;;4.23;;
17151;SDS011;8691;50.828;4.700;2023-03-04T08:36:40;10.23;;;4.10;;
17151;SDS011;8691;50.828;4.700;2023-03-04T08:39:06;7.90;;;3.53;;
17151;SDS011;8691;50.828;4.700;2023-03-04T08:41:33;12.00;;;3.50;;
17151;SDS011;8691;50.828;4.700;2023-03-04T08:44:00;11.53;;;3.70;;
17151;SDS011;8691;50.828;4.700;2023-03-04T08:46:29;9.55;;;3.33;;
17151;SDS011;8691;50.828;4.700;2023-03-04T08:48:53;8.67;;;3.30;;
17151;SDS011;8691;50.828;4.700;2023-03-04T08:51:20;10.60;;;2.73;;
17151;SDS011;8691;50.828;4.700;2023-03-04T08:53:46;6.77;;;2.80;;
17151;SDS011;8691;50.828;4.700;2023-03-04T08:56:13;7.23;;;2.77;;
17151;SDS011;8691;50.828;4.700;2023-03-04T08:58:40;8.20;;;2.87;;
17151;SDS011;8691;50.828;4.700;2023-03-04T09:01:07;5.47;;;2.97;;
17151;SDS011;8691;50.828;4.700;2023-03-04T09:03:34;9.17;;;3.30;;
17151;SDS011;8691;50.828;4.700;2023-03-04T09:06:01;7.30;;;2.80;;
17151;SDS011;8691;50.828;4.700;2023-03-04T09:08:28;7.33;;;3.20;;
17151;SDS011;8691;50.828;4.700;2023-03-04T09:10:54;8.67;;;3.03;;
17151;SDS011;8691;50.828;4.700;2023-03-04T09:13:22;6.37;;;2.60;;
17151;SDS011;8691;50.828;4.700;2023-03-04T09:15:48;6.60;;;2.80;;
17151;SDS011;8691;50.828;4.700;2023-03-04T09:18:14;8.30;;;2.90;;
17151;SDS011;8691;50.828;4.700;2023-03-04T09:20:41;8.60;;;3.03;;
17151;SDS011;8691;50.828;4.700;2023-03-04T09:23:07;6.57;;;3.10;;
17151;SDS011;8691;50.828;4.700;2023-03-04T09:25:34;9.17;;;3.70;;
17151;SDS011;8691;50.828;4.700;2023-03-04T09:28:01;8.85;;;3.50;;
17151;SDS011;8691;50.828;4.700;2023-03-04T09:30:28;5.90;;;2.30;;
17151;SDS011;8691;50.828;4.700;2023-03-04T09:32:54;4.20;;;3.00;;
17151;SDS011;8691;50.828;4.700;2023-03-04T09:35:21;8.87;;;3.00;;
17151;SDS011;8691;50.828;4.700;2023-03-04T09:37:48;7.50;;;3.00;;
17151;SDS011;8691;50.828;4.700;2023-03-04T09:40:22;9.07;;;3.75;;
17151;SDS011;8691;50.828;4.700;2023-03-04T09:42:49;7.70;;;3.50;;
17151;SDS011;8691;50.828;4.700;2023-03-04T09:45:21;7.37;;;3.53;;
17151;SDS011;8691;50.828;4.700;2023-03-04T09:47:47;6.82;;;3.67;;
17151;SDS011;8691;50.828;4.700;2023-03-04T09:50:14;7.15;;;3.80;;
17151;SDS011;8691;50.828;4.700;2023-03-04T09:55:19;7.50;;;3.55;;
17151;SDS011;8691;50.828;4.700;2023-03-04T09:57:49;6.38;;;3.38;;
17151;SDS011;8691;50.828;4.700;2023-03-04T10:00:33;6.95;;;2.97;;
17151;SDS011;8691;50.828;4.700;2023-03-04T10:03:05;8.62;;;3.10;;
17151;SDS011;8691;50.828;4.700;2023-03-04T10:05:53;5.77;;;2.87;;
17151;SDS011;8691;50.828;4.700;2023-03-04T10:08:23;5.83;;;3.13;;
17151;SDS011;8691;50.828;4.700;2023-03-04T10:10:58;6.30;;;3.17;;
17151;SDS011;8691;50.828;4.700;2023-03-04T10:13:42;7.10;;;3.27;;
17151;SDS011;8691;50.828;4.700;2023-03-04T10:16:07;5.73;;;3.23;;
17151;SDS011;8691;50.828;4.700;2023-03-04T10:18:37;9.33;;;3.60;;
17151;SDS011;8691;50.828;4.700;2023-03-04T10:21:01;7.23;;;3.50;;
17151;SDS011;8691;50.828;4.700;2023-03-04T10:23:27;6.80;;;3.20;;
17151;SDS011;8691;50.828;4.700;2023-03-04T10:25:54;7.53;;;3.40;;
17151;SDS011;8691;50.828;4.700;2023-03-04T10:28:25;6.00;;;3.57;;
17151;SDS011;8691;50.828;4.700;2023-03-04T10:30:58;6.70;;;2.97;;
17151;SDS011;8691;50.828;4.700;2023-03-04T10:33:41;6.38;;;3.00;;
17151;SDS011;8691;50.828;4.700;2023-03-04T10:41:28;8.20;;;3.17;;
17151;SDS011;8691;50.828;4.700;2023-03-04T10:46:39;4.45;;;3.90;;
17151;SDS011;8691;50.828;4.700;2023-03-04T10:49:05;5.27;;;2.73;;
17151;SDS011;8691;50.828;4.700;2023-03-04T10:51:38;6.17;;;3.30;;
17151;SDS011;8691;50.828;4.700;2023-03-04T10:54:04;7.45;;;3.40;;
17151;SDS011;8691;50.828;4.700;2023-03-04T10:56:36;6.43;;;3.22;;
17151;SDS011;8691;50.828;4.700;2023-03-04T10:59:22;7.28;;;3.58;;
17151;SDS011;8691;50.828;4.700;2023-03-04T11:01:50;5.87;;;3.10;;
17151;SDS011;8691;50.828;4.700;2023-03-04T11:04:16;6.87;;;3.53;;
17151;SDS011;8691;50.828;4.700;2023-03-04T11:06:44;6.77;;;2.83;;
17151;SDS011;8691;50.828;4.700;2023-03-04T11:09:30;6.15;;;4.10;;
17151;SDS011;8691;50.828;4.700;2023-03-04T11:11:41;8.68;;;4.35;;
17151;SDS011;8691;50.828;4.700;2023-03-04T11:14:11;8.15;;;4.20;;
17151;SDS011;8691;50.828;4.700;2023-03-04T11:16:37;7.97;;;4.23;;
17151;SDS011;8691;50.828;4.700;2023-03-04T11:19:13;7.75;;;4.12;;
17151;SDS011;8691;50.828;4.700;2023-03-04T11:21:38;7.97;;;3.90;;
17151;SDS011;8691;50.828;4.700;2023-03-04T11:24:12;12.80;;;4.20;;
17151;SDS011;8691;50.828;4.700;2023-03-04T11:26:48;7.68;;;3.72;;
17151;SDS011;8691;50.828;4.700;2023-03-04T11:29:27;8.48;;;3.78;;
17151;SDS011;8691;50.828;4.700;2023-03-04T13:03:10;8.27;;;4.30;;
17151;SDS011;8691;50.828;4.700;2023-03-04T13:08:33;8.38;;;3.83;;
17151;SDS011;8691;50.828;4.700;2023-03-04T13:14:21;6.10;;;3.80;;
17151;SDS011;8691;50.828;4.700;2023-03-04T13:16:41;8.00;;;3.53;;
17151;SDS011;8691;50.828;4.700;2023-03-04T13:22:56;6.90;;;3.60;;
17151;SDS011;8691;50.828;4.700;2023-03-04T13:24:58;6.53;;;3.50;;
17151;SDS011;8691;50.828;4.700;2023-03-04T13:27:44;11.62;;;4.72;;
17151;SDS011;8691;50.828;4.700;2023-03-04T13:33:38;5.97;;;4.03;;
17151;SDS011;8691;50.828;4.700;2023-03-04T13:41:20;8.90;;;4.85;;
17151;SDS011;8691;50.828;4.700;2023-03-04T13:43:52;8.55;;;4.85;;
17151;SDS011;8691;50.828;4.700;2023-03-04T13:48:45;8.93;;;5.30;;
17151;SDS011;8691;50.828;4.700;2023-03-04T13:54:12;6.73;;;5.13;;
17151;SDS011;8691;50.828;4.700;2023-03-04T13:56:47;8.73;;;5.00;;
17151;SDS011;8691;50.828;4.700;2023-03-04T14:02:14;7.47;;;5.30;;
17151;SDS011;8691;50.828;4.700;2023-03-04T14:04:44;7.23;;;4.53;;
17151;SDS011;8691;50.828;4.700;2023-03-04T14:07:31;7.73;;;4.20;;
17151;SDS011;8691;50.828;4.700;2023-03-04T14:09:58;5.00;;;4.50;;
17151;SDS011;8691;50.828;4.700;2023-03-04T14:12:24;6.20;;;4.70;;
17151;SDS011;8691;50.828;4.700;2023-03-04T14:14:51;10.10;;;6.20;;
17151;SDS011;8691;50.828;4.700;2023-03-04T14:17:22;7.53;;;4.90;;
17151;SDS011;8691;50.828;4.700;2023-03-04T14:19:47;5.73;;;4.90;;
17151;SDS011;8691;50.828;4.700;2023-03-04T14:22:26;9.87;;;5.93;;
17151;SDS011;8691;50.828;4.700;2023-03-04T14:24:57;8.20;;;5.97;;
17151;SDS011;8691;50.828;4.700;2023-03-04T14:27:24;6.70;;;5.13;;
17151;SDS011;8691;50.828;4.700;2023-03-04T14:29:55;9.13;;;4.43;;
17151;SDS011;8691;50.828;4.700;2023-03-04T14:32:33;4.07;;;3.67;;
17151;SDS011;8691;50.828;4.700;2023-03-04T14:35:05;7.07;;;3.77;;
17151;SDS011;8691;50.828;4.700;2023-03-04T14:37:34;6.17;;;3.83;;
17151;SDS011;8691;50.828;4.700;2023-03-04T14:39:58;5.73;;;3.77;;
17151;SDS011;8691;50.828;4.700;2023-03-04T14:42:26;4.77;;;4.03;;
17151;SDS011;8691;50.828;4.700;2023-03-04T14:44:51;6.80;;;6.00;;
17151;SDS011;8691;50.828;4.700;2023-03-04T14:47:19;7.93;;;6.05;;
17151;SDS011;8691;50.828;4.700;2023-03-04T14:49:45;6.68;;;6.05;;
17151;SDS011;8691;50.828;4.700;2023-03-04T14:55:17;5.60;;;5.00;;
17151;SDS011;8691;50.828;4.700;2023-03-04T14:57:51;6.67;;;4.90;;
17151;SDS011;8691;50.828;4.700;2023-03-04T15:00:27;7.83;;;5.97;;
17151;SDS011;8691;50.828;4.700;2023-03-04T15:02:59;7.63;;;6.20;;
17151;SDS011;8691;50.828;4.700;2023-03-04T15:05:23;8.23;;;5.97;;
17151;SDS011;8691;50.828;4.700;2023-03-04T15:07:53;7.17;;;5.50;;
17151;SDS011;8691;50.828;4.700;2023-03-04T15:10:27;7.10;;;5.60;;
17151;SDS011;8691;50.828;4.700;2023-03-04T15:12:53;7.17;;;5.57;;
17151;SDS011;8691;50.828;4.700;2023-03-04T15:18:21;7.47;;;5.25;;
17151;SDS011;8691;50.828;4.700;2023-03-04T15:20:56;5.18;;;4.62;;
17151;SDS011;8691;50.828;4.700;2023-03-04T15:23:22;7.47;;;4.20;;
17151;SDS011;8691;50.828;4.700;2023-03-04T15:25:50;6.45;;;4.62;;
17151;SDS011;8691;50.828;4.700;2023-03-04T15:28:17;5.78;;;5.22;;
17151;SDS011;8691;50.828;4.700;2023-03-04T15:30:43;4.73;;;4.17;;
17151;SDS011;8691;50.828;4.700;2023-03-04T15:33:11;4.80;;;4.30;;
17151;SDS011;8691;50.828;4.700;2023-03-04T15:35:37;5.83;;;3.47;;
17151;SDS011;8691;50.828;4.700;2023-03-04T15:38:07;4.20;;;3.80;;
17151;SDS011;8691;50.828;4.700;2023-03-04T15:40:34;5.93;;;4.13;;
17151;SDS011;8691;50.828;4.700;2023-03-04T15:43:02;4.83;;;3.60;;
17151;SDS011;8691;50.828;4.700;2023-03-04T15:45:28;6.10;;;3.70;;
17151;SDS011;8691;50.828;4.700;2023-03-04T15:47:56;3.73;;;3.23;;
17151;SDS011;8691;50.828;4.700;2023-03-04T15:50:26;3.67;;;3.33;;
17151;SDS011;8691;50.828;4.700;2023-03-04T15:52:50;4.27;;;3.20;;
17151;SDS011;8691;50.828;4.700;2023-03-04T15:55:17;6.27;;;2.80;;
17151;SDS011;8691;50.828;4.700;2023-03-04T15:57:47;5.67;;;2.80;;
17151;SDS011;8691;50.828;4.700;2023-03-04T16:00:13;4.20;;;3.00;;
17151;SDS011;8691;50.828;4.700;2023-03-04T16:02:40;4.83;;;2.93;;
17151;SDS011;8691;50.828;4.700;2023-03-04T16:05:07;6.07;;;3.13;;
17151;SDS011;8691;50.828;4.700;2023-03-04T16:07:33;4.20;;;2.90;;
17151;SDS011;8691;50.828;4.700;2023-03-04T16:10:00;3.63;;;3.03;;
17151;SDS011;8691;50.828;4.700;2023-03-04T16:12:26;2.70;;;2.40;;
17151;SDS011;8691;50.828;4.700;2023-03-04T16:14:53;3.10;;;2.63;;
17151;SDS011;8691;50.828;4.700;2023-03-04T16:17:19;5.20;;;3.20;;
17151;SDS011;8691;50.828;4.700;2023-03-04T16:19:46;6.17;;;3.10;;
17151;SDS011;8691;50.828;4.700;2023-03-04T16:22:20;4.17;;;2.80;;
17151;SDS011;8691;50.828;4.700;2023-03-04T16:24:45;4.07;;;3.17;;
17151;SDS011;8691;50.828;4.700;2023-03-04T16:27:12;3.87;;;2.73;;
17151;SDS011;8691;50.828;4.700;2023-03-04T16:29:38;8.07;;;3.30;;
17151;SDS011;8691;50.828;4.700;2023-03-04T16:32:05;5.43;;;3.10;;
17151;SDS011;8691;50.828;4.700;2023-03-04T16:34:32;4.00;;;3.33;;
17151;SDS011;8691;50.828;4.700;2023-03-04T16:36:59;5.20;;;3.33;;
17151;SDS011;8691;50.828;4.700;2023-03-04T16:39:25;5.60;;;3.20;;
17151;SDS011;8691;50.828;4.700;2023-03-04T16:41:51;8.90;;;3.30;;
17151;SDS011;8691;50.828;4.700;2023-03-04T16:44:18;5.57;;;3.10;;
17151;SDS011;8691;50.828;4.700;2023-03-04T16:46:45;3.27;;;3.00;;
17151;SDS011;8691;50.828;4.700;2023-03-04T16:49:12;6.03;;;3.00;;
17151;SDS011;8691;50.828;4.700;2023-03-04T16:51:40;3.23;;;2.90;;
17151;SDS011;8691;50.828;4.700;2023-03-04T16:54:06;5.83;;;2.87;;
17151;SDS011;8691;50.828;4.700;2023-03-04T16:56:33;3.40;;;3.10;;
17151;SDS011;8691;50.828;4.700;2023-03-04T16:58:59;5.27;;;3.33;;
17151;SDS011;8691;50.828;4.700;2023-03-04T17:01:26;5.57;;;2.90;;
17151;SDS011;8691;50.828;4.700;2023-03-04T17:03:53;6.97;;;2.80;;
17151;SDS011;8691;50.828;4.700;2023-03-04T17:06:19;5.03;;;2.77;;
17151;SDS011;8691;50.828;4.700;2023-03-04T17:08:46;4.80;;;2.97;;
17151;SDS011;8691;50.828;4.700;2023-03-04T17:11:16;4.50;;;2.77;;
17151;SDS011;8691;50.828;4.700;2023-03-04T17:13:45;5.23;;;2.77;;
17151;SDS011;8691;50.828;4.700;2023-03-04T17:16:12;5.80;;;2.63;;